Time;durP1;ratioP1;P1;durP2;ratioP2;P2;SDS_P1;SDS_P2;PMS_P1;PMS_P2;Temp;Humidity;BMP_temperature;BMP_pressure;BME280_temperature;BME280_humidity;BME280_pressure;Samples;Min_cycle;Max_cycle;Signal;HPM_P1;HPM_P2
2022/07/10 00:02:05;;;;;;;3.60;0.93;;;12.80;99.90;;;;;;5026393;28;20278;-93
2022/07/10 00:04:32;;;;;;;3.90;0.90;;;12.80;99.90;;;;;;5026497;28;20207;-92
2022/07/10 00:07:01;;;;;;;4.80;0.90;;;12.80;99.90;;;;;;5028964;28;20228;-91
2022/07/10 00:09:28;;;;;;;3.63;1.30;;;12.80;99.90;;;;;;5041308;28;20229;-91
2022/07/10 00:11:55;;;;;;;5.10;1.00;;;12.80;99.90;;;;;;5027343;28;20234;-90
2022/07/10 00:14:24;;;;;;;4.03;1.10;;;12.80;99.90;;;;;;5020326;28;20216;-91
2022/07/10 00:16:51;;;;;;;3.57;1.10;;;12.80;99.90;;;;;;5027078;28;20243;-92
2022/07/10 00:19:18;;;;;;;5.23;1.17;;;12.80;99.90;;;;;;5025506;28;20233;-92
2022/07/10 00:21:45;;;;;;;3.97;0.80;;;12.80;99.90;;;;;;5024886;28;20233;-91
2022/07/10 00:24:11;;;;;;;3.40;1.00;;;12.90;99.90;;;;;;5024955;28;20220;-92
2022/07/10 00:26:38;;;;;;;5.83;1.33;;;12.80;99.90;;;;;;5024851;28;20216;-91
2022/07/10 00:29:05;;;;;;;4.63;1.10;;;12.80;99.90;;;;;;5025956;28;20230;-92
2022/07/10 00:31:33;;;;;;;4.93;1.00;;;12.80;99.90;;;;;;5024363;28;21312;-91
2022/07/10 00:34:00;;;;;;;4.03;0.87;;;12.70;99.90;;;;;;5038254;28;20206;-90
2022/07/10 00:36:27;;;;;;;5.40;1.03;;;12.70;99.90;;;;;;5022881;28;20231;-91
2022/07/10 00:38:54;;;;;;;6.57;1.33;;;12.70;99.90;;;;;;5027338;28;20300;-90
2022/07/10 00:41:20;;;;;;;2.97;1.00;;;12.60;99.90;;;;;;5022012;28;20250;-91
2022/07/10 00:43:55;;;;;;;4.13;0.97;;;12.60;99.90;;;;;;5022569;28;20221;-92
2022/07/10 00:46:22;;;;;;;4.23;1.37;;;12.60;99.90;;;;;;5018202;28;20244;-92
2022/07/10 00:48:51;;;;;;;8.03;1.43;;;12.60;99.90;;;;;;5023203;28;20217;-93
2022/07/10 00:51:19;;;;;;;4.33;0.90;;;12.50;99.90;;;;;;5022413;28;20232;-91
2022/07/10 00:53:48;;;;;;;2.80;1.00;;;12.50;99.90;;;;;;5023030;28;20251;-92
2022/07/10 00:56:18;;;;;;;4.63;1.40;;;12.50;99.90;;;;;;5018257;28;20227;-93
2022/07/10 00:58:46;;;;;;;4.87;1.10;;;12.50;99.90;;;;;;5022614;28;20236;-92
2022/07/10 01:01:13;;;;;;;5.40;1.40;;;12.50;99.90;;;;;;5024225;28;20671;-92
2022/07/10 01:03:41;;;;;;;4.83;1.07;;;12.50;99.90;;;;;;5021311;28;20712;-92
2022/07/10 01:06:09;;;;;;;7.50;1.50;;;12.50;99.90;;;;;;5021739;28;20236;-92
2022/07/10 01:08:36;;;;;;;3.00;1.00;;;12.50;99.90;;;;;;5021983;28;20221;-92
2022/07/10 01:11:03;;;;;;;5.37;1.33;;;12.50;99.90;;;;;;5023298;28;21170;-92
2022/07/10 01:13:31;;;;;;;3.60;1.00;;;12.50;99.90;;;;;;5022207;28;20215;-92
2022/07/10 01:15:58;;;;;;;4.77;1.30;;;12.50;99.90;;;;;;5022416;28;20226;-93
2022/07/10 01:18:26;;;;;;;5.93;1.20;;;12.60;99.90;;;;;;5026464;28;20224;-91
2022/07/10 01:20:55;;;;;;;5.60;1.53;;;12.60;99.90;;;;;;5026926;28;20236;-91
2022/07/10 01:23:22;;;;;;;5.80;1.50;;;12.60;99.90;;;;;;5039175;28;20307;-92
2022/07/10 01:25:49;;;;;;;5.57;1.77;;;12.60;99.90;;;;;;5026354;28;20252;-92
2022/07/10 01:28:17;;;;;;;8.60;1.53;;;12.60;99.90;;;;;;5025205;28;20248;-91
2022/07/10 01:30:44;;;;;;;5.03;1.20;;;12.60;99.90;;;;;;5024568;28;20231;-91
2022/07/10 01:33:11;;;;;;;7.00;2.10;;;12.60;99.90;;;;;;5036232;28;20538;-91
2022/07/10 01:35:38;;;;;;;6.53;1.30;;;12.70;99.90;;;;;;5019189;28;20240;-92
2022/07/10 01:38:06;;;;;;;6.97;1.70;;;12.60;99.90;;;;;;5022751;28;20236;-92
2022/07/10 01:40:33;;;;;;;5.63;1.20;;;12.60;99.90;;;;;;5021496;28;20226;-91
2022/07/10 01:43:00;;;;;;;5.97;1.10;;;12.70;99.90;;;;;;5026599;28;20270;-92
2022/07/10 01:45:27;;;;;;;6.73;1.60;;;12.60;99.90;;;;;;5023523;28;20224;-93
2022/07/10 01:47:54;;;;;;;4.43;1.20;;;12.60;99.90;;;;;;5023582;28;20299;-92
2022/07/10 01:50:21;;;;;;;3.33;1.23;;;12.70;99.90;;;;;;5024326;28;20214;-91
2022/07/10 01:52:48;;;;;;;6.10;1.63;;;12.60;99.90;;;;;;5027966;28;20238;-92
2022/07/10 01:55:16;;;;;;;7.83;1.43;;;12.60;99.90;;;;;;5027215;28;20268;-91
2022/07/10 01:57:43;;;;;;;6.80;1.47;;;12.70;99.90;;;;;;5023612;28;20229;-93
2022/07/10 02:00:10;;;;;;;5.13;1.50;;;12.70;99.90;;;;;;5022731;28;20239;-92
2022/07/10 02:02:40;;;;;;;7.17;1.53;;;12.70;99.90;;;;;;5025603;28;20209;-92
2022/07/10 02:05:06;;;;;;;6.33;1.33;;;12.70;99.90;;;;;;5025669;28;20218;-91
2022/07/10 02:07:33;;;;;;;7.13;1.37;;;12.70;99.90;;;;;;5041685;28;20239;-91
2022/07/10 02:10:00;;;;;;;8.53;1.53;;;12.70;99.90;;;;;;5025300;28;20291;-92
2022/07/10 02:12:29;;;;;;;5.67;1.43;;;12.70;99.90;;;;;;5022458;28;20253;-92
2022/07/10 02:14:59;;;;;;;4.80;1.17;;;12.70;99.90;;;;;;5027893;28;20253;-91
2022/07/10 02:17:26;;;;;;;6.17;1.60;;;12.70;99.90;;;;;;5030159;28;20232;-91
2022/07/10 02:19:52;;;;;;;6.03;1.87;;;12.70;99.90;;;;;;5030729;28;20215;-91
2022/07/10 02:22:19;;;;;;;8.30;1.83;;;12.70;99.90;;;;;;5029001;28;20424;-91
2022/07/10 02:24:46;;;;;;;7.17;1.63;;;12.70;99.90;;;;;;5029547;28;20217;-91
2022/07/10 02:27:13;;;;;;;4.77;1.20;;;12.70;99.90;;;;;;5029947;28;20231;-91
2022/07/10 02:29:41;;;;;;;7.47;1.30;;;12.70;99.90;;;;;;5028733;28;20306;-91
2022/07/10 02:32:08;;;;;;;9.40;1.30;;;12.70;99.90;;;;;;5027047;28;20218;-91
2022/07/10 02:34:35;;;;;;;3.93;1.13;;;12.80;99.90;;;;;;5022746;28;20225;-91
2022/07/10 02:37:02;;;;;;;6.87;1.33;;;12.80;99.90;;;;;;5030176;28;20211;-91
2022/07/10 02:39:29;;;;;;;7.13;1.50;;;12.80;99.90;;;;;;5028914;28;20229;-91
2022/07/10 02:41:56;;;;;;;7.10;1.73;;;12.80;99.90;;;;;;5029846;28;20239;-90
2022/07/10 02:44:22;;;;;;;7.40;1.60;;;12.80;99.90;;;;;;5025052;28;20259;-91
2022/07/10 02:46:51;;;;;;;8.63;1.90;;;12.80;99.90;;;;;;5029440;28;20229;-90
2022/07/10 02:49:17;;;;;;;5.00;1.37;;;12.80;99.90;;;;;;5027540;28;20221;-90
2022/07/10 02:51:44;;;;;;;5.37;1.57;;;12.80;99.90;;;;;;5025747;28;20553;-91
2022/07/10 02:54:11;;;;;;;5.43;1.50;;;12.80;99.90;;;;;;5028079;28;20216;-91
2022/07/10 02:56:39;;;;;;;8.20;1.50;;;12.80;99.90;;;;;;5028902;28;20218;-91
2022/07/10 02:59:06;;;;;;;5.20;1.30;;;12.80;99.90;;;;;;5025648;28;20232;-91
2022/07/10 03:01:33;;;;;;;4.50;1.33;;;12.80;99.90;;;;;;5026712;28;20230;-92
2022/07/10 03:04:02;;;;;;;7.70;1.50;;;12.80;99.90;;;;;;5037653;28;20832;-91
2022/07/10 03:06:29;;;;;;;6.47;1.57;;;12.80;99.90;;;;;;5028328;28;20221;-92
2022/07/10 03:08:56;;;;;;;6.27;1.87;;;12.80;99.90;;;;;;5030643;28;20210;-91
2022/07/10 03:11:22;;;;;;;7.63;1.77;;;12.80;99.90;;;;;;5028026;28;20254;-91
2022/07/10 03:13:49;;;;;;;4.57;1.37;;;12.70;99.90;;;;;;5028237;28;20245;-92
2022/07/10 03:16:16;;;;;;;8.90;1.90;;;12.80;99.90;;;;;;5026381;28;20237;-90
2022/07/10 03:18:43;;;;;;;7.07;2.13;;;12.70;99.90;;;;;;5025643;28;20221;-91
2022/07/10 03:21:11;;;;;;;11.00;2.13;;;12.80;99.90;;;;;;5028654;28;20225;-91
2022/07/10 03:23:39;;;;;;;5.70;2.03;;;12.80;99.90;;;;;;5025656;28;20233;-92
2022/07/10 03:26:07;;;;;;;5.70;2.03;;;12.70;99.90;;;;;;5026959;28;20234;-91
2022/07/10 03:28:34;;;;;;;8.03;2.53;;;12.80;99.90;;;;;;5026472;28;20237;-91
2022/07/10 03:31:02;;;;;;;6.00;1.63;;;12.80;99.90;;;;;;5029456;28;20228;-91
2022/07/10 03:33:28;;;;;;;13.60;2.80;;;12.80;99.90;;;;;;5034482;28;20217;-91
2022/07/10 03:35:55;;;;;;;7.63;2.27;;;12.70;99.90;;;;;;5023458;28;20259;-91
2022/07/10 03:38:23;;;;;;;7.50;2.27;;;12.80;99.90;;;;;;5028665;28;20210;-91
2022/07/10 03:40:50;;;;;;;11.90;2.50;;;12.70;99.90;;;;;;5027919;28;20218;-91
2022/07/10 03:43:17;;;;;;;10.07;2.73;;;12.70;99.90;;;;;;5028259;28;20213;-92
2022/07/10 03:45:44;;;;;;;9.53;2.13;;;12.70;99.90;;;;;;5026364;28;20241;-92
2022/07/10 03:48:11;;;;;;;9.17;2.87;;;12.70;99.90;;;;;;5025115;28;20231;-91
2022/07/10 03:50:37;;;;;;;8.57;2.67;;;12.80;99.90;;;;;;5026130;28;20208;-91
2022/07/10 03:53:04;;;;;;;12.13;2.57;;;12.70;99.90;;;;;;5028028;28;20251;-91
2022/07/10 03:55:32;;;;;;;8.57;2.63;;;12.70;99.90;;;;;;5027583;28;20636;-91
2022/07/10 03:58:02;;;;;;;14.73;2.97;;;12.80;99.90;;;;;;5024862;28;20207;-90
2022/07/10 04:00:31;;;;;;;7.33;2.07;;;12.70;99.90;;;;;;5026499;28;20240;-92
2022/07/10 04:02:59;;;;;;;9.80;2.53;;;12.70;99.90;;;;;;5014692;28;20219;-91
2022/07/10 04:05:27;;;;;;;10.37;2.73;;;12.80;99.90;;;;;;5025304;28;20220;-91
2022/07/10 04:07:54;;;;;;;6.77;2.47;;;12.80;99.90;;;;;;5028444;28;20225;-91
2022/07/10 04:10:21;;;;;;;9.73;2.13;;;12.80;99.90;;;;;;5026409;28;20216;-91
2022/07/10 04:12:50;;;;;;;9.57;2.37;;;12.90;99.90;;;;;;5029452;28;20208;-91
2022/07/10 04:15:17;;;;;;;9.30;2.70;;;12.90;99.90;;;;;;5028790;28;20252;-91
2022/07/10 04:17:44;;;;;;;10.53;2.50;;;12.80;99.90;;;;;;5026765;28;20215;-91
2022/07/10 04:20:11;;;;;;;9.57;2.53;;;12.90;99.90;;;;;;5028647;28;20286;-91
2022/07/10 04:22:38;;;;;;;9.93;2.60;;;12.90;99.90;;;;;;5025570;28;20268;-91
2022/07/10 04:25:06;;;;;;;10.77;2.50;;;12.90;99.90;;;;;;5027368;28;20239;-90
2022/07/10 04:27:33;;;;;;;10.10;2.60;;;13.00;99.90;;;;;;5043395;28;20235;-91
2022/07/10 04:30:01;;;;;;;10.93;2.80;;;13.00;99.90;;;;;;5028584;28;20224;-91
2022/07/10 04:32:28;;;;;;;11.17;3.07;;;13.00;99.90;;;;;;5041711;28;20382;-91
2022/07/10 04:34:55;;;;;;;11.33;2.80;;;13.00;99.90;;;;;;5027851;28;20231;-90
2022/07/10 04:37:22;;;;;;;12.13;3.70;;;13.10;99.90;;;;;;5027360;28;20252;-91
2022/07/10 04:39:48;;;;;;;11.07;2.50;;;13.10;99.90;;;;;;5028762;28;20209;-91
2022/07/10 04:42:15;;;;;;;7.70;2.43;;;13.10;99.90;;;;;;5027920;28;20273;-91
2022/07/10 04:44:43;;;;;;;12.30;3.30;;;13.10;99.90;;;;;;5027496;28;20236;-90
2022/07/10 04:47:11;;;;;;;9.40;2.37;;;13.20;99.90;;;;;;5028671;28;20236;-90
2022/07/10 04:49:38;;;;;;;13.17;2.83;;;13.20;99.90;;;;;;5026553;28;20232;-92
2022/07/10 04:52:05;;;;;;;8.77;2.90;;;13.20;99.90;;;;;;5028325;28;20211;-91
2022/07/10 04:54:33;;;;;;;9.00;2.83;;;13.20;99.90;;;;;;5027053;28;20239;-92
2022/07/10 04:57:00;;;;;;;14.83;2.73;;;13.20;99.90;;;;;;5028225;28;20223;-91
2022/07/10 04:59:26;;;;;;;11.60;2.93;;;13.30;99.90;;;;;;5024838;28;20219;-92
2022/07/10 05:01:53;;;;;;;12.87;3.17;;;13.20;99.90;;;;;;5028037;28;20207;-90
2022/07/10 05:04:21;;;;;;;9.93;2.90;;;13.30;99.90;;;;;;5030598;28;20262;-91
2022/07/10 05:06:48;;;;;;;11.20;2.60;;;13.30;99.90;;;;;;5028731;28;20226;-91
2022/07/10 05:09:15;;;;;;;10.47;3.27;;;13.30;99.90;;;;;;5029539;28;20308;-91
2022/07/10 05:11:42;;;;;;;13.23;2.93;;;13.50;99.90;;;;;;5028716;28;20228;-92
2022/07/10 05:14:08;;;;;;;9.30;2.70;;;13.50;99.90;;;;;;5044178;28;20211;-91
2022/07/10 05:16:35;;;;;;;14.20;2.80;;;13.60;99.90;;;;;;5027857;28;20220;-92
2022/07/10 05:19:02;;;;;;;10.63;3.03;;;13.60;99.90;;;;;;5031717;28;20262;-91
2022/07/10 05:21:30;;;;;;;10.50;2.60;;;13.70;99.90;;;;;;5027572;28;20216;-91
2022/07/10 05:23:57;;;;;;;9.83;3.00;;;13.80;99.90;;;;;;5028231;28;20207;-92
2022/07/10 05:26:23;;;;;;;14.20;3.50;;;13.80;99.90;;;;;;5023274;28;20314;-91
2022/07/10 05:28:50;;;;;;;11.50;3.43;;;13.80;99.90;;;;;;5023816;28;20230;-94
2022/07/10 05:31:17;;;;;;;10.57;2.90;;;13.90;99.90;;;;;;5026590;28;20229;-90
2022/07/10 05:33:44;;;;;;;9.00;2.63;;;14.00;99.90;;;;;;5028330;28;20213;-91
2022/07/10 05:36:11;;;;;;;10.60;3.20;;;14.00;99.90;;;;;;5028799;28;20230;-91
2022/07/10 05:38:39;;;;;;;13.33;2.80;;;14.00;99.90;;;;;;5027111;28;20221;-90
2022/07/10 05:41:06;;;;;;;13.23;2.70;;;14.10;99.90;;;;;;5028941;28;20219;-90
2022/07/10 05:43:33;;;;;;;10.97;3.37;;;14.10;99.90;;;;;;5030892;28;20210;-89
2022/07/10 05:45:59;;;;;;;12.60;3.23;;;14.20;99.90;;;;;;5029577;28;20575;-90
2022/07/10 05:48:26;;;;;;;12.63;3.37;;;14.30;99.90;;;;;;5033891;28;20230;-91
2022/07/10 05:50:53;;;;;;;9.00;2.47;;;14.30;99.90;;;;;;5030138;28;20236;-91
2022/07/10 05:53:20;;;;;;;12.80;3.07;;;14.30;99.90;;;;;;5033509;28;20226;-92
2022/07/10 05:55:49;;;;;;;9.93;2.70;;;14.30;99.90;;;;;;5029948;28;20240;-92
2022/07/10 05:58:15;;;;;;;11.90;2.93;;;14.40;99.90;;;;;;5029695;28;20238;-92
2022/07/10 06:00:45;;;;;;;16.60;2.93;;;14.40;99.90;;;;;;5027807;28;20221;-90
2022/07/10 06:03:12;;;;;;;10.87;2.93;;;14.60;99.90;;;;;;5032299;28;20279;-89
2022/07/10 06:05:39;;;;;;;9.47;2.87;;;14.60;99.70;;;;;;5029509;28;20220;-92
2022/07/10 06:08:06;;;;;;;12.57;3.40;;;14.70;99.80;;;;;;5021029;28;20218;-91
2022/07/10 06:10:33;;;;;;;13.67;3.20;;;14.70;99.70;;;;;;5032287;28;20207;-90
2022/07/10 06:13:01;;;;;;;11.70;3.10;;;14.80;99.70;;;;;;5035900;28;20381;-92
2022/07/10 06:15:27;;;;;;;14.13;2.73;;;14.90;99.40;;;;;;5031151;28;20275;-90
2022/07/10 06:17:57;;;;;;;9.80;2.50;;;15.00;99.50;;;;;;5031423;28;20226;-90
2022/07/10 06:20:24;;;;;;;10.70;2.73;;;15.10;99.30;;;;;;5030390;28;20231;-92
2022/07/10 06:22:51;;;;;;;9.00;2.60;;;15.20;99.10;;;;;;5030514;28;20434;-91
2022/07/10 06:25:18;;;;;;;11.80;2.67;;;15.30;98.70;;;;;;5032909;28;20227;-91
2022/07/10 06:27:45;;;;;;;9.87;2.90;;;15.40;98.40;;;;;;5048256;28;20204;-91
2022/07/10 06:30:13;;;;;;;11.97;3.30;;;15.40;98.20;;;;;;5031261;28;20373;-91
2022/07/10 06:32:40;;;;;;;10.07;2.47;;;15.40;98.00;;;;;;5033815;28;20204;-91
2022/07/10 06:35:08;;;;;;;9.73;2.67;;;15.40;98.20;;;;;;5032961;28;20204;-91
2022/07/10 06:37:35;;;;;;;9.10;2.47;;;15.40;98.10;;;;;;5032269;28;20207;-92
2022/07/10 06:40:01;;;;;;;9.17;2.63;;;15.40;97.80;;;;;;5030060;28;20204;-91
2022/07/10 06:42:28;;;;;;;9.33;2.37;;;15.50;97.80;;;;;;5035941;28;20241;-91
2022/07/10 06:44:59;;;;;;;10.87;2.70;;;15.50;97.90;;;;;;5032622;28;20215;-90
2022/07/10 06:50:12;;;;;;;10.03;2.40;;;15.60;97.20;;;;;;5041942;28;20225;-92
2022/07/10 06:52:39;;;;;;;12.70;1.90;;;15.80;97.20;;;;;;5032510;28;20208;-90
2022/07/10 06:55:06;;;;;;;11.00;2.27;;;15.80;97.00;;;;;;5021209;28;20247;-91
2022/07/10 06:57:34;;;;;;;10.10;2.77;;;15.90;96.40;;;;;;5031108;28;20216;-91
2022/07/10 07:00:01;;;;;;;12.17;2.40;;;16.00;96.20;;;;;;5039373;28;20237;-91
2022/07/10 07:02:29;;;;;;;12.83;2.90;;;16.10;96.10;;;;;;5026769;28;20216;-91
2022/07/10 07:04:56;;;;;;;9.77;2.23;;;16.10;95.60;;;;;;5026743;28;20228;-91
2022/07/10 07:07:23;;;;;;;9.90;2.50;;;16.10;95.60;;;;;;5027925;28;20261;-91
2022/07/10 07:09:50;;;;;;;12.00;2.30;;;16.20;95.60;;;;;;5031604;28;20236;-91
2022/07/10 07:12:17;;;;;;;12.40;2.30;;;16.30;95.80;;;;;;5029285;28;20261;-93
2022/07/10 07:14:44;;;;;;;7.87;2.27;;;16.60;95.60;;;;;;5029491;28;20204;-91
2022/07/10 07:17:13;;;;;;;10.73;2.30;;;17.00;95.00;;;;;;5027873;28;20209;-91
2022/07/10 07:25:11;;;;;;;8.43;2.13;;;18.10;94.60;;;;;;5028453;28;20381;-91
2022/07/10 07:27:39;;;;;;;9.33;2.33;;;18.50;94.00;;;;;;5029177;28;20240;-92
2022/07/10 07:30:08;;;;;;;8.37;2.30;;;18.80;92.80;;;;;;5044143;28;20217;-91
2022/07/10 07:32:34;;;;;;;10.67;2.33;;;19.00;92.50;;;;;;5027688;28;20228;-91
2022/07/10 07:35:03;;;;;;;6.63;1.93;;;19.10;91.90;;;;;;5028951;28;20273;-92
2022/07/10 07:37:40;;;;;;;10.27;2.20;;;19.00;91.50;;;;;;5029810;28;20236;-91
2022/07/10 07:40:08;;;;;;;7.70;1.93;;;19.00;91.00;;;;;;5049231;28;20228;-91
2022/07/10 07:42:36;;;;;;;7.35;2.05;;;18.80;90.90;;;;;;5027282;28;20261;-93
2022/07/10 07:45:04;;;;;;;8.50;1.90;;;18.70;91.20;;;;;;5030531;28;20220;-90
2022/07/10 07:47:42;;;;;;;6.70;1.70;;;18.60;90.90;;;;;;5029109;28;20233;-92
2022/07/10 07:50:11;;;;;;;5.70;1.70;;;18.60;91.10;;;;;;5026397;28;20213;-91
2022/07/10 07:52:37;;;;;;;7.50;1.80;;;18.70;91.00;;;;;;5037007;28;20287;-91
2022/07/10 07:55:05;;;;;;;7.43;2.55;;;19.00;90.80;;;;;;5028175;28;20252;-92
2022/07/10 07:57:32;;;;;;;8.27;1.92;;;19.10;90.90;;;;;;5029460;28;20224;-91
2022/07/10 07:59:59;;;;;;;8.23;2.13;;;19.50;90.80;;;;;;5029028;28;20202;-91
2022/07/10 08:02:25;;;;;;;8.00;2.22;;;19.80;90.40;;;;;;5025050;28;21291;-92
2022/07/10 08:04:52;;;;;;;5.43;1.80;;;20.00;88.90;;;;;;5027801;28;20260;-91
2022/07/10 08:07:20;;;;;;;6.95;2.13;;;20.00;88.90;;;;;;5025301;28;20225;-92
2022/07/10 08:09:48;;;;;;;7.75;2.22;;;20.00;88.10;;;;;;5028099;28;20206;-91
2022/07/10 08:12:15;;;;;;;6.60;1.77;;;20.00;88.00;;;;;;5026522;28;20228;-90
2022/07/10 08:14:42;;;;;;;6.32;1.38;;;20.00;86.60;;;;;;5028256;28;20229;-91
2022/07/10 08:17:09;;;;;;;6.13;2.38;;;20.00;86.50;;;;;;5026455;28;20210;-91
2022/07/10 08:19:35;;;;;;;9.35;2.40;;;19.80;86.80;;;;;;5027771;28;20212;-90
2022/07/10 08:22:02;;;;;;;6.25;1.73;;;19.60;85.50;;;;;;5026729;28;20210;-91
2022/07/10 08:24:30;;;;;;;7.95;1.80;;;19.40;84.40;;;;;;5026444;28;20236;-91
2022/07/10 08:26:57;;;;;;;5.60;1.83;;;19.20;85.10;;;;;;5025066;28;20217;-90
2022/07/10 08:29:24;;;;;;;5.68;1.60;;;19.20;86.80;;;;;;5025224;28;20357;-92
2022/07/10 08:31:51;;;;;;;4.85;1.52;;;19.40;85.50;;;;;;5025255;28;20237;-93
2022/07/10 08:34:17;;;;;;;5.03;1.30;;;19.60;86.10;;;;;;5027414;28;20267;-91
2022/07/10 08:36:44;;;;;;;6.13;1.50;;;19.90;85.00;;;;;;5030481;28;20213;-91
2022/07/10 08:39:12;;;;;;;6.75;1.83;;;20.30;83.80;;;;;;5041443;28;20229;-90
2022/07/10 08:41:40;;;;;;;6.30;1.85;;;20.80;83.30;;;;;;5042591;28;20223;-89
2022/07/10 08:44:07;;;;;;;4.40;1.73;;;21.20;81.60;;;;;;5029533;28;20278;-89
2022/07/10 08:46:35;;;;;;;8.20;2.10;;;21.50;80.50;;;;;;5027088;28;20208;-90
2022/07/10 08:49:09;;;;;;;4.80;1.25;;;21.90;78.80;;;;;;5028646;28;20206;-90
2022/07/10 08:51:38;;;;;;;6.70;1.73;;;22.20;77.60;;;;;;5022689;28;20217;-91
2022/07/10 08:54:05;;;;;;;6.40;1.67;;;22.50;76.80;;;;;;5023433;28;20226;-90
2022/07/10 08:56:32;;;;;;;4.95;1.50;;;22.70;74.60;;;;;;5026563;28;20280;-91
2022/07/10 08:59:03;;;;;;;6.50;1.52;;;22.80;73.30;;;;;;5040010;28;20241;-89
2022/07/10 09:01:30;;;;;;;5.10;1.27;;;22.90;73.40;;;;;;5043273;28;20252;-89
2022/07/10 09:03:57;;;;;;;5.43;1.70;;;23.00;73.00;;;;;;5027386;28;20209;-90
2022/07/10 09:06:24;;;;;;;5.40;1.60;;;23.20;70.70;;;;;;5026875;28;20410;-89
2022/07/10 09:09:02;;;;;;;4.63;1.52;;;23.30;70.40;;;;;;5027982;28;20311;-90
2022/07/10 09:11:30;;;;;;;4.78;1.58;;;23.40;70.60;;;;;;5027025;28;20217;-90
2022/07/10 09:13:58;;;;;;;6.15;1.73;;;23.60;70.50;;;;;;5027290;28;20222;-90
2022/07/10 09:16:29;;;;;;;4.00;1.17;;;23.80;70.10;;;;;;5024176;28;20233;-90
2022/07/10 09:18:56;;;;;;;3.97;1.50;;;24.00;67.80;;;;;;5039724;28;20408;-89
2022/07/10 09:21:24;;;;;;;5.05;1.23;;;23.90;66.30;;;;;;5023377;28;20230;-91
2022/07/10 09:23:50;;;;;;;4.70;1.35;;;23.80;66.20;;;;;;5024441;28;20221;-91
2022/07/10 09:26:18;;;;;;;4.22;1.48;;;23.70;66.10;;;;;;5027053;28;20271;-92
2022/07/10 09:28:44;;;;;;;5.35;1.23;;;23.70;66.40;;;;;;5023067;28;20284;-91
2022/07/10 09:31:11;;;;;;;5.05;1.55;;;23.70;66.00;;;;;;5023822;28;20236;-90
2022/07/10 09:33:41;;;;;;;8.05;1.60;;;23.80;64.80;;;;;;5027435;28;20320;-90
2022/07/10 09:36:10;;;;;;;5.45;1.50;;;23.90;63.80;;;;;;5025828;28;20217;-88
2022/07/10 09:38:54;;;;;;;9.63;1.80;;;23.90;64.80;;;;;;5025790;28;20265;-90
2022/07/10 09:41:26;;;;;;;9.73;1.70;;;23.80;65.90;;;;;;5027143;28;20198;-90
2022/07/10 09:43:55;;;;;;;5.53;1.90;;;23.90;65.30;;;;;;5026980;28;20222;-89
2022/07/10 09:46:24;;;;;;;5.65;1.77;;;23.90;65.00;;;;;;5018794;28;20206;-91
2022/07/10 09:49:03;;;;;;;7.63;1.52;;;23.90;65.90;;;;;;5027040;28;20226;-92
2022/07/10 09:51:35;;;;;;;4.63;1.60;;;23.90;64.90;;;;;;5027859;28;20224;-91
2022/07/10 09:54:03;;;;;;;6.88;1.98;;;23.90;66.30;;;;;;5029362;28;20217;-91
2022/07/10 09:56:44;;;;;;;7.53;1.92;;;23.90;65.70;;;;;;5026374;28;20892;-91
2022/07/10 09:59:14;;;;;;;8.00;1.65;;;24.10;65.40;;;;;;5027421;28;20217;-93
2022/07/10 10:01:46;;;;;;;7.63;1.58;;;24.30;65.50;;;;;;5027483;28;20209;-90
2022/07/10 10:04:15;;;;;;;5.55;1.75;;;24.50;64.10;;;;;;5027396;28;20247;-90
2022/07/10 10:06:43;;;;;;;6.72;1.85;;;24.60;62.60;;;;;;5027285;28;20213;-91
2022/07/10 10:09:16;;;;;;;6.22;1.70;;;24.60;63.00;;;;;;5024231;28;20206;-91
2022/07/10 10:11:45;;;;;;;5.28;1.67;;;24.40;61.90;;;;;;5025923;28;20229;-90
2022/07/10 10:14:13;;;;;;;5.53;1.60;;;24.30;63.40;;;;;;5026622;28;20225;-91
2022/07/10 10:16:41;;;;;;;5.65;1.52;;;24.10;62.70;;;;;;5027667;28;20236;-91
2022/07/10 10:21:57;;;;;;;7.72;1.60;;;23.90;62.10;;;;;;5024935;28;20213;-91
2022/07/10 10:24:26;;;;;;;5.65;1.55;;;23.90;62.10;;;;;;5038474;28;20318;-91
2022/07/10 10:26:54;;;;;;;5.75;1.92;;;23.90;62.50;;;;;;5038378;28;20297;-91
2022/07/10 10:29:21;;;;;;;4.10;1.30;;;24.10;62.90;;;;;;5037887;28;20214;-91
2022/07/10 10:31:48;;;;;;;5.20;1.40;;;24.20;62.10;;;;;;5028259;28;20272;-91
2022/07/10 10:34:39;;;;;;;4.18;1.40;;;24.20;60.50;;;;;;5028928;28;20206;-91
2022/07/10 10:37:10;;;;;;;3.38;1.13;;;24.20;59.80;;;;;;5029916;28;20225;-92
2022/07/10 10:39:55;;;;;;;6.65;1.73;;;24.10;59.60;;;;;;5029457;28;20716;-90
2022/07/10 10:42:35;;;;;;;5.78;1.52;;;24.10;60.20;;;;;;5032300;28;20229;-91
2022/07/10 10:45:32;;;;;;;6.25;1.35;;;24.00;59.90;;;;;;5026706;28;20221;-91
2022/07/10 10:48:01;;;;;;;6.45;1.45;;;24.10;58.90;;;;;;5029275;28;20209;-91
2022/07/10 10:50:38;;;;;;;5.60;1.20;;;24.10;59.60;;;;;;5032080;28;20226;-90
2022/07/10 10:53:13;;;;;;;8.95;1.58;;;24.10;59.50;;;;;;5039023;28;20219;-92
2022/07/10 10:55:41;;;;;;;7.78;2.05;;;24.10;59.40;;;;;;5030039;28;20277;-91
2022/07/10 10:58:17;;;;;;;5.18;1.73;;;24.20;59.10;;;;;;5032009;28;20233;-91
2022/07/10 11:00:45;;;;;;;5.53;1.50;;;24.30;58.50;;;;;;5028216;28;20240;-91
2022/07/10 11:03:21;;;;;;;5.20;1.55;;;24.30;58.00;;;;;;5023709;28;20268;-91
2022/07/10 11:05:50;;;;;;;3.53;1.20;;;24.20;58.00;;;;;;5029481;28;20217;-91
2022/07/10 11:08:40;;;;;;;3.72;1.38;;;24.10;58.30;;;;;;5030125;28;20232;-92
2022/07/10 11:11:42;;;;;;;5.75;1.50;;;24.00;57.80;;;;;;5027269;28;20209;-91
2022/07/10 11:14:10;;;;;;;4.00;1.48;;;24.00;57.60;;;;;;5024611;28;20205;-91
2022/07/10 11:16:46;;;;;;;3.65;1.17;;;24.00;58.20;;;;;;5029696;28;20217;-92
2022/07/10 11:19:13;;;;;;;7.90;1.30;;;24.00;57.60;;;;;;5027431;28;20220;-92
2022/07/10 11:21:50;;;;;;;3.42;1.27;;;24.00;57.90;;;;;;5027155;28;20205;-93
2022/07/10 11:24:38;;;;;;;4.68;1.40;;;24.00;57.60;;;;;;5015088;28;20229;-93
2022/07/10 11:27:16;;;;;;;3.28;1.30;;;23.90;57.60;;;;;;5025363;28;20244;-92
2022/07/10 11:29:47;;;;;;;3.53;1.30;;;23.80;58.20;;;;;;5027699;28;20229;-92
2022/07/10 11:32:17;;;;;;;3.72;1.05;;;23.60;58.40;;;;;;5031881;28;20328;-92
2022/07/10 11:34:43;;;;;;;3.75;1.50;;;23.40;58.10;;;;;;5031862;28;20248;-92
2022/07/10 11:37:15;;;;;;;5.15;1.30;;;23.40;58.90;;;;;;5017557;28;20420;-92
2022/07/10 11:39:44;;;;;;;5.95;1.60;;;23.40;59.00;;;;;;5029232;28;20418;-92
2022/07/10 11:42:11;;;;;;;3.53;1.25;;;23.50;58.50;;;;;;5028242;28;20268;-92
2022/07/10 11:44:37;;;;;;;4.95;1.30;;;23.60;58.80;;;;;;5033191;28;20224;-92
2022/07/10 11:47:06;;;;;;;3.17;1.17;;;23.80;58.90;;;;;;5022355;28;20244;-92
2022/07/10 11:49:35;;;;;;;5.75;1.77;;;23.90;58.20;;;;;;5034000;28;20295;-92
2022/07/10 11:52:03;;;;;;;4.32;1.23;;;23.90;57.30;;;;;;5026227;28;20381;-92
2022/07/10 11:54:30;;;;;;;3.03;1.20;;;23.90;57.30;;;;;;5034166;28;20248;-92
2022/07/10 11:57:06;;;;;;;5.15;1.40;;;23.70;57.30;;;;;;5021871;28;20222;-93
2022/07/10 11:59:33;;;;;;;4.80;1.38;;;23.40;57.70;;;;;;5030133;28;20292;-92
2022/07/10 12:02:00;;;;;;;5.75;1.50;;;23.20;57.90;;;;;;5031258;28;20366;-92
2022/07/10 12:04:31;;;;;;;5.72;1.30;;;23.00;58.40;;;;;;5018431;28;20355;-92
2022/07/10 12:06:58;;;;;;;6.40;1.73;;;22.80;59.00;;;;;;5041524;28;20209;-92
2022/07/10 12:09:25;;;;;;;5.40;1.23;;;22.70;59.20;;;;;;5032293;28;20293;-91
2022/07/10 12:12:01;;;;;;;5.13;1.42;;;22.70;60.10;;;;;;5028581;28;20213;-93
2022/07/10 12:14:28;;;;;;;3.55;1.30;;;22.70;60.40;;;;;;5038501;28;20221;-92
2022/07/10 12:17:03;;;;;;;3.67;1.27;;;22.70;60.20;;;;;;5026571;28;20464;-93
2022/07/10 12:19:33;;;;;;;5.07;1.40;;;23.00;59.50;;;;;;5009157;28;20214;-92
2022/07/10 12:22:01;;;;;;;4.97;1.58;;;23.00;59.30;;;;;;5035555;28;20288;-92
2022/07/10 12:24:28;;;;;;;4.10;1.25;;;23.10;59.20;;;;;;5022039;28;20232;-93
2022/07/10 12:26:55;;;;;;;4.18;1.35;;;23.00;58.90;;;;;;5022249;28;20241;-93
2022/07/10 12:29:25;;;;;;;8.30;1.35;;;22.80;59.10;;;;;;5019245;28;21391;-92
2022/07/10 12:31:54;;;;;;;5.80;1.30;;;22.70;59.40;;;;;;5025458;28;20216;-93
2022/07/10 12:34:34;;;;;;;4.10;1.27;;;22.60;59.80;;;;;;5022756;28;20240;-91
2022/07/10 12:37:08;;;;;;;3.13;1.33;;;22.40;59.70;;;;;;5022595;28;20364;-93
2022/07/10 12:39:38;;;;;;;4.72;1.20;;;22.40;59.90;;;;;;5021313;28;20232;-92
2022/07/10 12:42:07;;;;;;;4.03;1.30;;;22.30;60.00;;;;;;5042324;28;20301;-93
2022/07/10 12:44:39;;;;;;;4.03;1.15;;;22.20;59.70;;;;;;5035971;28;20233;-93
2022/07/10 12:47:10;;;;;;;3.38;1.17;;;22.10;59.30;;;;;;5022159;28;20236;-93
2022/07/10 12:49:50;;;;;;;3.88;1.20;;;22.00;59.80;;;;;;5024723;28;20256;-93
2022/07/10 12:52:22;;;;;;;4.10;1.02;;;21.90;60.10;;;;;;5024246;28;20217;-92
2022/07/10 12:54:49;;;;;;;4.05;1.30;;;21.80;60.20;;;;;;5024033;28;20213;-93
2022/07/10 12:57:16;;;;;;;6.13;1.73;;;21.80;61.70;;;;;;5023109;28;20233;-92
2022/07/10 12:59:44;;;;;;;6.57;1.45;;;21.80;60.70;;;;;;5025359;28;20225;-93
2022/07/10 13:02:18;;;;;;;5.80;1.38;;;21.70;60.50;;;;;;5024523;28;20237;-91
2022/07/10 13:04:55;;;;;;;4.95;1.30;;;21.70;61.10;;;;;;5038754;28;20264;-92